NFTL/HPA METAR and TAF weather

Enter ICAO airport designator
Station Type Date Time Source
NFTL METAR 2019/10/23 02:00 UTC NOAA

NFTL 230200Z 12009KT 9999 FEW018 27/20 Q1012


Station Type Date Time Source
NFTL Decoded METAR 2019/10/23 02:00 UTC NOAA

Haapai, Tonga (NFTL) 19-48S 174-21W 3M
Oct 22, 2019 - 10:00 PM EDT / 2019.10.23 0200 UTC
Wind: from the ESE (120 degrees) at 10 MPH (9 KT):0
Visibility: greater than 7 mile(s):0
Sky conditions: mostly clear
Temperature: 80 F (27 C)
Dew Point: 68 F (20 C)
Relative Humidity: 65%
Pressure (altimeter): 29.88 in. Hg (1012 hPa)
ob: NFTL 230200Z 12009KT 9999 FEW018 27/20 Q1012
cycle: 2

Station Type Date Time Source
NFTL TAF 2018/02/21 17:36 UTC NOAA

TAF NFTL 211605Z 2117/2208 12010KT 9999 SCT018

Example: see airport list